createdAt,value
2023-05-06T00:01:26.829Z,99361.06
2023-05-06T00:04:29.063Z,99370.69
2023-05-06T00:07:31.298Z,99369.06
2023-05-06T00:10:33.608Z,99371.94
2023-05-06T00:13:35.910Z,99371.13
2023-05-06T00:16:38.278Z,99368.47
2023-05-06T00:19:40.589Z,99370.16
2023-05-06T00:22:43.010Z,99367.69
2023-05-06T00:25:45.750Z,99373.66
2023-05-06T00:28:47.937Z,99371.34
2023-05-06T00:31:50.239Z,99380.69
2023-05-06T00:34:52.497Z,99378.06
2023-05-06T00:37:59.020Z,99372.75
2023-05-06T00:41:01.656Z,99382.44
2023-05-06T00:44:03.911Z,99383.84
2023-05-06T00:47:06.929Z,99385.31
2023-05-06T00:50:09.311Z,99374.22
2023-05-06T00:53:11.659Z,99384.31
2023-05-06T00:56:14.013Z,99382.25
2023-05-06T00:59:16.369Z,99378.72
2023-05-06T01:02:18.605Z,99377.91
2023-05-06T01:05:22.958Z,99369.53
2023-05-06T01:08:58.997Z,99383.47
2023-05-06T01:12:30.108Z,99382.94
2023-05-06T01:15:36.845Z,99380.91
2023-05-06T01:18:40.120Z,99376.00
2023-05-06T01:21:45.775Z,99387.47
2023-05-06T01:24:47.933Z,99390.53
2023-05-06T01:27:50.684Z,99378.88
2023-05-06T01:30:52.890Z,99381.53
2023-05-06T01:34:07.057Z,99373.97
2023-05-06T01:37:14.919Z,99365.16
2023-05-06T01:40:18.080Z,99361.69
2023-05-06T01:43:21.868Z,99357.59
2023-05-06T01:46:25.272Z,99357.78
2023-05-06T01:49:27.912Z,99354.56
2023-05-06T01:52:30.134Z,99355.38
2023-05-06T01:55:32.419Z,99347.38
2023-05-06T01:58:34.633Z,99341.62
2023-05-06T02:01:36.906Z,99344.09
2023-05-06T02:04:39.281Z,99342.88
2023-05-06T02:07:41.486Z,99344.50
2023-05-06T02:10:43.657Z,99335.06
2023-05-06T02:13:45.905Z,99350.22
2023-05-06T02:16:48.101Z,99353.50
2023-05-06T02:19:50.550Z,99352.31
2023-05-06T02:22:53.047Z,99345.34
2023-05-06T02:25:55.404Z,99348.78
2023-05-06T02:28:57.573Z,99341.81
2023-05-06T02:31:59.874Z,99343.25
2023-05-06T02:35:02.300Z,99344.28
2023-05-06T02:38:04.619Z,99345.50
2023-05-06T02:41:06.823Z,99349.00
2023-05-06T02:44:09.016Z,99353.09
2023-05-06T02:47:11.185Z,99349.22
2023-05-06T02:50:13.379Z,99353.91
2023-05-06T02:53:15.636Z,99355.53
2023-05-06T02:56:17.836Z,99351.66
2023-05-06T02:59:20.036Z,99360.87
2023-05-06T03:02:22.264Z,99359.03
2023-05-06T03:05:24.511Z,99364.56
2023-05-06T03:08:26.811Z,99363.72
2023-05-06T03:11:31.516Z,99368.63
2023-05-06T03:14:33.697Z,99362.09
2023-05-06T03:17:36.225Z,99361.63
2023-05-06T03:20:38.535Z,99373.34
2023-05-06T03:23:40.721Z,99365.16
2023-05-06T03:26:42.917Z,99358.00
2023-05-06T03:29:45.415Z,99359.03
2023-05-06T03:32:48.114Z,99359.25
2023-05-06T03:35:50.341Z,99352.87
2023-05-06T03:38:52.522Z,99341.88
2023-05-06T03:41:54.722Z,99346.97
2023-05-06T03:44:56.993Z,99334.50
2023-05-06T03:47:59.196Z,99327.72
2023-05-06T03:51:01.805Z,99334.88
2023-05-06T03:54:04.728Z,99331.59
2023-05-06T03:57:07.247Z,99330.53
2023-05-06T04:00:10.495Z,99327.00
2023-05-06T04:03:13.107Z,99331.63
2023-05-06T04:06:15.489Z,99329.16
2023-05-06T04:09:17.797Z,99336.13
2023-05-06T04:12:20.020Z,99332.72
2023-05-06T04:15:22.977Z,99338.31
2023-05-06T04:18:25.262Z,99336.75
2023-05-06T04:21:27.939Z,99344.06
2023-05-06T04:24:31.273Z,99358.84
2023-05-06T04:27:33.601Z,99357.28
2023-05-06T04:30:36.046Z,99357.34
2023-05-06T04:33:38.296Z,99359.22
2023-05-06T04:36:41.039Z,99358.47
2023-05-06T04:39:47.215Z,99364.34
2023-05-06T04:42:49.394Z,99374.50
2023-05-06T04:45:51.596Z,99378.94
2023-05-06T04:48:53.799Z,99375.09
2023-05-06T04:51:56.362Z,99377.56
2023-05-06T04:54:58.633Z,99382.41
2023-05-06T04:58:00.824Z,99385.75
2023-05-06T05:01:08.694Z,99384.66
2023-05-06T05:04:10.996Z,99392.53
2023-05-06T05:07:13.156Z,99389.22
2023-05-06T05:10:15.387Z,99391.66
2023-05-06T05:13:17.601Z,99396.31
2023-05-06T05:16:19.842Z,99397.69
2023-05-06T05:19:22.031Z,99398.81
2023-05-06T05:22:24.285Z,99407.06
2023-05-06T05:25:27.005Z,99409.19
2023-05-06T05:28:29.233Z,99410.19
2023-05-06T05:31:31.568Z,99413.16
2023-05-06T05:34:33.826Z,99419.97
2023-05-06T05:37:36.444Z,99414.37
2023-05-06T05:40:38.954Z,99409.03
2023-05-06T05:43:41.111Z,99410.22
2023-05-06T05:46:43.414Z,99409.66
2023-05-06T05:49:45.680Z,99407.84
2023-05-06T05:52:48.454Z,99404.16
2023-05-06T05:55:50.628Z,99402.12
2023-05-06T05:58:53.652Z,99403.44
2023-05-06T06:01:55.776Z,99408.22
2023-05-06T06:04:58.023Z,99402.91
2023-05-06T06:08:02.221Z,99396.78
2023-05-06T06:11:06.359Z,99404.41
2023-05-06T06:14:08.579Z,99410.66
2023-05-06T06:17:11.103Z,99411.88
2023-05-06T06:20:13.611Z,99404.22
2023-05-06T06:23:16.072Z,99398.63
2023-05-06T06:26:18.288Z,99401.53
2023-05-06T06:29:20.539Z,99401.06
2023-05-06T06:32:22.741Z,99403.09
2023-05-06T06:35:24.987Z,99400.56
2023-05-06T06:38:27.256Z,99403.75
2023-05-06T06:41:29.458Z,99399.16
2023-05-06T06:44:32.025Z,99405.75
2023-05-06T06:47:34.276Z,99409.09
2023-05-06T06:50:36.452Z,99401.97
2023-05-06T06:53:38.610Z,99401.78
2023-05-06T06:56:40.787Z,99389.72
2023-05-06T06:59:43.220Z,99390.25
2023-05-06T07:02:48.091Z,99388.66
2023-05-06T07:05:50.310Z,99392.34
2023-05-06T07:08:52.561Z,99389.28
2023-05-06T07:11:54.719Z,99382.09
2023-05-06T07:14:56.931Z,99385.38
2023-05-06T07:17:59.226Z,99392.09
2023-05-06T07:21:01.469Z,99391.03
2023-05-06T07:24:03.786Z,99397.69
2023-05-06T07:27:05.998Z,99407.47
2023-05-06T07:30:08.588Z,99398.63
2023-05-06T07:33:10.755Z,99403.25
2023-05-06T07:36:12.931Z,99398.37
2023-05-06T07:39:15.068Z,99397.59
2023-05-06T07:42:17.306Z,99405.16
2023-05-06T07:45:23.041Z,99397.56
2023-05-06T07:48:25.301Z,99400.25
2023-05-06T07:51:28.173Z,99396.88
2023-05-06T07:54:31.800Z,99401.78
2023-05-06T07:57:34.114Z,99400.41
2023-05-06T08:00:36.313Z,99390.94
2023-05-06T08:03:38.617Z,99394.44
2023-05-06T08:06:40.942Z,99397.47
2023-05-06T08:09:43.162Z,99402.62
2023-05-06T08:12:45.510Z,99405.53
2023-05-06T08:15:48.459Z,99403.91
2023-05-06T08:18:50.726Z,99406.28
2023-05-06T08:21:53.010Z,99406.81
2023-05-06T08:24:55.328Z,99411.06
2023-05-06T08:27:57.583Z,99415.41
2023-05-06T08:30:59.746Z,99412.31
2023-05-06T08:34:02.417Z,99418.47
2023-05-06T08:37:04.613Z,99415.34
2023-05-06T08:40:17.290Z,99415.06
2023-05-06T08:43:21.123Z,99414.47
2023-05-06T08:46:23.414Z,99410.09
2023-05-06T08:49:25.701Z,99412.41
2023-05-06T08:52:28.494Z,99410.62
2023-05-06T08:55:30.961Z,99405.91
2023-05-06T08:58:35.127Z,99401.69
2023-05-06T09:01:38.057Z,99405.59
2023-05-06T09:04:40.474Z,99404.81
2023-05-06T09:07:42.673Z,99403.06
2023-05-06T09:10:46.211Z,99401.03
2023-05-06T09:13:48.928Z,99396.81
2023-05-06T09:16:52.615Z,99388.09
2023-05-06T09:19:57.147Z,99390.13
2023-05-06T09:23:01.246Z,99382.34
2023-05-06T09:26:03.673Z,99383.16
2023-05-06T09:29:06.437Z,99381.22
2023-05-06T09:32:10.369Z,99382.31
2023-05-06T09:35:12.766Z,99387.53
2023-05-06T09:38:15.129Z,99388.75
2023-05-06T09:41:20.941Z,99381.13
2023-05-06T09:44:24.537Z,99377.03
2023-05-06T09:47:28.251Z,99377.41
2023-05-06T09:50:30.680Z,99372.03
2023-05-06T09:53:34.886Z,99364.19
2023-05-06T09:56:37.689Z,99369.41
2023-05-06T09:59:40.160Z,99365.72
2023-05-06T10:02:43.710Z,99368.16
2023-05-06T10:05:46.469Z,99360.72
2023-05-06T10:08:49.131Z,99359.69
2023-05-06T10:11:52.325Z,99350.66
2023-05-06T10:14:54.786Z,99354.41
2023-05-06T10:17:57.585Z,99340.50
2023-05-06T10:21:00.760Z,99339.25
2023-05-06T10:24:09.218Z,99337.28
2023-05-06T10:27:12.453Z,99330.59
2023-05-06T10:30:18.850Z,99332.59
2023-05-06T10:33:23.253Z,99324.06
2023-05-06T10:36:27.817Z,99325.94
2023-05-06T10:39:30.033Z,99319.97
2023-05-06T10:42:35.603Z,99308.91
2023-05-06T10:46:04.882Z,99308.28
2023-05-06T10:49:11.346Z,99306.41
2023-05-06T10:52:14.939Z,99302.47
2023-05-06T10:55:30.285Z,99296.97
2023-05-06T10:58:36.199Z,99286.75
2023-05-06T11:01:40.505Z,99293.03
2023-05-06T11:04:42.840Z,99286.97
2023-05-06T11:07:45.075Z,99291.72
2023-05-06T11:10:47.288Z,99292.13
2023-05-06T11:13:53.063Z,99284.13
2023-05-06T11:16:59.558Z,99275.56
2023-05-06T11:20:24.515Z,99275.41
2023-05-06T11:23:46.616Z,99277.84
2023-05-06T11:26:50.296Z,99276.22
2023-05-06T11:29:52.483Z,99272.19
2023-05-06T11:32:55.962Z,99270.06
2023-05-06T11:35:59.609Z,99269.63
2023-05-06T11:39:06.629Z,99262.84
2023-05-06T11:42:09.484Z,99273.00
2023-05-06T11:45:12.491Z,99272.66
2023-05-06T11:48:15.533Z,99282.34
2023-05-06T11:51:24.172Z,99279.72
2023-05-06T11:54:27.102Z,99276.03
2023-05-06T11:57:29.847Z,99282.31
2023-05-06T12:00:32.021Z,99276.31
2023-05-06T12:03:34.382Z,99278.97
2023-05-06T12:06:37.571Z,99275.53
2023-05-06T12:09:42.745Z,99274.31
2023-05-06T12:12:45.015Z,99279.16
2023-05-06T12:15:48.310Z,99282.03
2023-05-06T12:18:50.613Z,99274.25
2023-05-06T12:21:52.795Z,99277.31
2023-05-06T12:24:55.009Z,99277.87
2023-05-06T12:27:58.213Z,99283.59
2023-05-06T12:31:01.252Z,99271.66
2023-05-06T12:34:04.473Z,99271.00
2023-05-06T12:37:07.454Z,99271.19
2023-05-06T12:40:17.006Z,99266.94
2023-05-06T12:43:19.227Z,99263.97
2023-05-06T12:46:21.716Z,99260.44
2023-05-06T12:49:24.027Z,99254.84
2023-05-06T12:52:28.658Z,99262.78
2023-05-06T12:55:35.112Z,99257.19
2023-05-06T12:58:38.110Z,99258.50
2023-05-06T13:01:40.400Z,99256.66
2023-05-06T13:04:42.732Z,99257.69
2023-05-06T13:07:45.039Z,99255.88
2023-05-06T13:10:47.247Z,99254.19
2023-05-06T13:13:49.571Z,99252.66
2023-05-06T13:16:52.008Z,99257.50
2023-05-06T13:19:54.485Z,99255.03
2023-05-06T13:22:56.673Z,99256.31
2023-05-06T13:26:05.342Z,99254.75
2023-05-06T13:29:08.235Z,99253.37
2023-05-06T13:32:10.589Z,99252.09
2023-05-06T13:35:12.998Z,99248.84
2023-05-06T13:38:15.476Z,99254.09
2023-05-06T13:41:17.678Z,99249.81
2023-05-06T13:44:20.532Z,99247.00
2023-05-06T13:47:23.173Z,99256.34
2023-05-06T13:50:25.454Z,99255.69
2023-05-06T13:53:27.714Z,99256.84
2023-05-06T13:56:29.988Z,99257.91
2023-05-06T13:59:32.155Z,99261.34
2023-05-06T14:02:34.902Z,99257.66
2023-05-06T14:05:37.155Z,99267.22
2023-05-06T14:08:39.365Z,99261.87
2023-05-06T14:11:41.533Z,99267.91
2023-05-06T14:14:43.709Z,99266.50
2023-05-06T14:17:45.936Z,99276.84
2023-05-06T14:20:48.172Z,99276.00
2023-05-06T14:23:50.346Z,99276.34
2023-05-06T14:26:52.874Z,99268.78
2023-05-06T14:29:55.093Z,99263.38
2023-05-06T14:32:57.284Z,99264.25
2023-05-06T14:36:00.143Z,99261.22
2023-05-06T14:39:02.400Z,99255.41
2023-05-06T14:42:04.692Z,99259.72
2023-05-06T14:45:07.517Z,99260.13
2023-05-06T14:48:10.376Z,99258.16
2023-05-06T14:51:12.590Z,99262.91
2023-05-06T14:54:14.751Z,99259.28
2023-05-06T14:57:16.986Z,99262.22
2023-05-06T15:00:20.331Z,99256.56
2023-05-06T15:03:22.544Z,99256.94
2023-05-06T15:06:25.098Z,99248.69
2023-05-06T15:09:27.329Z,99242.56
2023-05-06T15:12:29.588Z,99239.78
2023-05-06T15:15:31.801Z,99233.50
2023-05-06T15:18:34.036Z,99232.16
2023-05-06T15:21:36.228Z,99226.88
2023-05-06T15:24:38.434Z,99225.56
2023-05-06T15:27:40.662Z,99223.25
2023-05-06T15:30:42.817Z,99213.66
2023-05-06T15:33:45.012Z,99214.53
2023-05-06T15:36:54.491Z,99221.72
2023-05-06T15:39:57.582Z,99209.66
2023-05-06T15:42:59.806Z,99207.53
2023-05-06T15:46:02.065Z,99205.34
2023-05-06T15:49:31.972Z,99207.59
2023-05-06T15:52:26.731Z,99204.69
2023-05-06T15:55:29.199Z,99209.75
2023-05-06T15:58:31.374Z,99207.81
2023-05-06T16:02:08.410Z,99204.38
2023-05-06T16:04:55.941Z,99201.06
2023-05-06T16:07:58.542Z,99199.63
2023-05-06T16:11:00.809Z,99195.13
2023-05-06T16:14:03.912Z,99204.78
2023-05-06T16:17:08.198Z,99207.22
2023-05-06T16:20:11.340Z,99203.69
2023-05-06T16:23:14.574Z,99200.22
2023-05-06T16:26:17.761Z,99199.75
2023-05-06T16:29:20.775Z,99204.88
2023-05-06T16:32:23.567Z,99207.06
2023-05-06T16:35:25.986Z,99208.16
2023-05-06T16:38:28.262Z,99208.44
2023-05-06T16:41:30.452Z,99206.06
2023-05-06T16:44:32.686Z,99213.81
2023-05-06T16:47:35.351Z,99220.47
2023-05-06T16:50:38.453Z,99226.34
2023-05-06T16:53:40.686Z,99228.28
2023-05-06T16:56:51.309Z,99225.00
2023-05-06T16:59:54.869Z,99229.59
2023-05-06T17:02:57.147Z,99230.69
2023-05-06T17:05:59.518Z,99219.25
2023-05-06T17:09:01.729Z,99224.97
2023-05-06T17:12:04.145Z,99215.75
2023-05-06T17:15:07.021Z,99217.03
2023-05-06T17:18:09.371Z,99216.44
2023-05-06T17:21:11.602Z,99211.59
2023-05-06T17:24:13.860Z,99211.56
2023-05-06T17:27:16.784Z,99214.69
2023-05-06T17:30:20.755Z,99210.81
2023-05-06T17:33:24.089Z,99207.66
2023-05-06T17:36:26.423Z,99210.41
2023-05-06T17:39:28.611Z,99207.13
2023-05-06T17:42:30.935Z,99209.53
2023-05-06T17:45:33.156Z,99204.41
2023-05-06T17:48:35.988Z,99205.31
2023-05-06T17:51:38.314Z,99203.94
2023-05-06T17:54:40.560Z,99200.44
2023-05-06T17:57:43.004Z,99195.63
2023-05-06T18:00:45.484Z,99200.59
2023-05-06T18:03:47.846Z,99189.84
2023-05-06T18:06:50.175Z,99191.56
2023-05-06T18:09:52.510Z,99199.47
2023-05-06T18:12:55.659Z,99212.53
2023-05-06T18:15:57.957Z,99206.44
2023-05-06T18:19:05.088Z,99210.59
2023-05-06T18:22:07.378Z,99212.31
2023-05-06T18:25:10.168Z,99203.91
2023-05-06T18:28:12.553Z,99212.56
2023-05-06T18:31:15.086Z,99222.69
2023-05-06T18:34:17.287Z,99218.13
2023-05-06T18:37:19.476Z,99217.38
2023-05-06T18:40:21.678Z,99231.87
2023-05-06T18:43:23.994Z,99225.13
2023-05-06T18:46:27.601Z,99224.94
2023-05-06T18:49:31.124Z,99217.78
2023-05-06T18:52:33.695Z,99221.03
2023-05-06T18:55:37.038Z,99225.59
2023-05-06T18:58:40.622Z,99213.47
2023-05-06T19:01:42.847Z,99223.91
2023-05-06T19:04:45.099Z,99225.38
2023-05-06T19:07:47.321Z,99220.50
2023-05-06T19:10:49.510Z,99223.69
2023-05-06T19:13:51.994Z,99234.06
2023-05-06T19:16:54.571Z,99244.63
2023-05-06T19:19:56.790Z,99239.28
2023-05-06T19:22:58.979Z,99230.91
2023-05-06T19:26:01.445Z,99245.87
2023-05-06T19:29:03.715Z,99245.03
2023-05-06T19:32:06.094Z,99247.66
2023-05-06T19:35:09.028Z,99250.66
2023-05-06T19:38:11.433Z,99250.97
2023-05-06T19:41:13.809Z,99253.50
2023-05-06T19:44:16.216Z,99255.31
2023-05-06T19:47:18.440Z,99255.84
2023-05-06T19:50:20.719Z,99254.31
2023-05-06T19:53:23.968Z,99263.31
2023-05-06T19:56:26.244Z,99266.25
2023-05-06T19:59:28.528Z,99271.13
2023-05-06T20:02:31.546Z,99273.84
2023-05-06T20:05:33.921Z,99275.38
2023-05-06T20:08:36.130Z,99268.44
2023-05-06T20:11:38.591Z,99265.44
2023-05-06T20:14:41.628Z,99267.16
2023-05-06T20:17:43.859Z,99270.09
2023-05-06T20:20:47.213Z,99276.06
2023-05-06T20:23:49.716Z,99282.81
2023-05-06T20:26:52.124Z,99284.06
2023-05-06T20:29:54.378Z,99287.00
2023-05-06T20:32:56.678Z,99277.81
2023-05-06T20:35:59.058Z,99272.97
2023-05-06T20:39:01.533Z,99271.44
2023-05-06T20:42:03.797Z,99273.88
2023-05-06T20:45:06.719Z,99275.81
2023-05-06T20:48:09.105Z,99277.94
2023-05-06T20:51:11.367Z,99269.09
2023-05-06T20:54:13.547Z,99270.34
2023-05-06T20:57:17.523Z,99264.56
2023-05-06T21:00:20.085Z,99259.16
2023-05-06T21:03:22.542Z,99259.78
2023-05-06T21:06:24.827Z,99258.88
2023-05-06T21:09:28.200Z,99249.53
2023-05-06T21:12:30.407Z,99247.88
2023-05-06T21:15:34.226Z,99251.91
2023-05-06T21:18:36.813Z,99253.34
2023-05-06T21:21:39.033Z,99247.28
2023-05-06T21:24:41.294Z,99242.34
2023-05-06T21:27:43.514Z,99238.28
2023-05-06T21:30:45.769Z,99231.69
2023-05-06T21:33:50.905Z,99227.78
2023-05-06T21:36:53.131Z,99224.88
2023-05-06T21:39:55.346Z,99227.94
2023-05-06T21:42:57.571Z,99219.91
2023-05-06T21:45:59.766Z,99217.47
2023-05-06T21:49:02.049Z,99220.47
2023-05-06T21:52:06.341Z,99228.63
2023-05-06T21:55:09.030Z,99230.97
2023-05-06T21:58:11.369Z,99225.13
2023-05-06T22:01:13.648Z,99221.06
2023-05-06T22:04:16.762Z,99232.59
2023-05-06T22:07:19.125Z,99232.72
2023-05-06T22:10:21.508Z,99231.06
2023-05-06T22:13:26.529Z,99239.09
2023-05-06T22:16:29.600Z,99236.31
2023-05-06T22:19:31.831Z,99240.88
2023-05-06T22:22:34.353Z,99240.50
2023-05-06T22:25:37.457Z,99246.94
2023-05-06T22:28:39.644Z,99248.13
2023-05-06T22:31:41.868Z,99246.34
2023-05-06T22:34:44.117Z,99246.25
2023-05-06T22:37:46.326Z,99249.62
2023-05-06T22:40:48.574Z,99246.44
2023-05-06T22:43:50.937Z,99253.16
2023-05-06T22:46:53.262Z,99252.75
2023-05-06T22:49:55.531Z,99258.56
2023-05-06T22:52:57.797Z,99253.44
2023-05-06T22:56:00.058Z,99255.47
2023-05-06T22:59:02.299Z,99253.37
2023-05-06T23:02:04.475Z,99260.59
2023-05-06T23:05:06.848Z,99259.78
2023-05-06T23:08:09.154Z,99258.16
2023-05-06T23:11:11.378Z,99258.28
2023-05-06T23:14:13.559Z,99258.78
2023-05-06T23:17:16.000Z,99260.91
2023-05-06T23:20:18.354Z,99251.38
2023-05-06T23:23:20.559Z,99252.91
2023-05-06T23:26:22.883Z,99254.31
2023-05-06T23:29:25.140Z,99261.06
2023-05-06T23:32:27.355Z,99253.72
2023-05-06T23:35:29.618Z,99256.47
2023-05-06T23:38:31.861Z,99255.81
2023-05-06T23:41:34.093Z,99257.28
2023-05-06T23:44:36.886Z,99249.38
2023-05-06T23:47:39.130Z,99252.53
2023-05-06T23:50:41.292Z,99246.94
2023-05-06T23:53:43.451Z,99243.06
2023-05-06T23:56:45.744Z,99230.63
2023-05-06T23:59:47.959Z,99235.97
